Berlin Dahlem, Germany

8:33 AM CET on January 30, 2015 (GMT +0100)
Tegel | Change Station
CLOSE
Current Station
Airport
Location: Berlin Tegel,
Elevation: 121 ft
Nearby Weather Stations

Elev 121 ft 52.56 °N, 13.31 °E | Updated 13 minutes ago

Light Snow
Light Snow
34 °F
Feels Like 28 °F
N
7
Wind Variable Wind from ESE

Today
High -- | Low -- °F
--% Chance of Precip.
Yesterday
High -- | Low -- °F
Precip. -- in
7:52 AM 4:48 PM
Waxing Gibbous, 80% visible
Pressure 28.71 in
Visibility -9999.0 miles
Clouds Mostly Cloudy 600 ft
Windchill 28 °F
Dew Point 32 °F
Humidity 93%
Rainfall 0.00 in
Snow Depth Not available.
UV 0 out of 12
Pollen Not available.
Air Quality Not available.
Flu Activity Not available.
METAR EDDT 300720Z 12006KT 4600 -SN BKN006 01/00 Q0972 R88/290195 TEMPO 5000 -SN BKN004

More Conditions Fewer Conditions

Pressure 28.71 in
Visibility -9999.0 miles
Clouds Mostly Cloudy 600 ft
Windchill 28 °F
Dew Point 32 °F
Humidity 93%
Rainfall 0.00 in
Snow Depth Not available.
UV 0 out of 12
Pollen Not available.
Air Quality Not available.
Flu Activity Not available.
METAR EDDT 300720Z 12006KT 4600 -SN BKN006 01/00 Q0972 R88/290195 TEMPO 5000 -SN BKN004

More Conditions Fewer Conditions

10-Day Weather Forecast

Almanac

Astronomy

Jan. 30, 2015 Rise Set
Actual Time
Civil Twilight
Nautical Twilight
Astronomical Twilight
Moon
Length of Visible Light
Length of Day
Tomorrow will be .
, % of the Moon is Illuminated

Today's Extremes

Country Highs Country Lows

Community

WunderPhotos

Upload Photos

1,791,726 photos uploaded!

WunderBlogs® & News

Nearby

Air Quality

  Air Quality AQ Index Pollutant
Not available.

Snow Depth

Station Depth Elevation

Earthquake Activity

City Distance Mag. Time & Date
Minimum magnitude displayed is 2.5.

Coastal Water Temperatures

Place Temperature

Nearby Weather Stations